sensor_id;sensor_type;location;lat;lon;timestamp;pressure;altitude;pressure_sealevel;temperature;humidity
12775;BME280;6451;42.630;23.382;2023-06-26T00:00:12;94123.34;;;21.48;100.00
12775;BME280;6451;42.630;23.382;2023-06-26T00:02:39;94202.22;;;21.92;100.00
12775;BME280;6451;42.630;23.382;2023-06-26T00:05:08;94195.66;;;21.86;100.00
12775;BME280;6451;42.630;23.382;2023-06-26T00:07:35;94221.06;;;22.01;100.00
12775;BME280;6451;42.630;23.382;2023-06-26T00:10:04;94219.53;;;21.96;100.00
12775;BME280;6451;42.630;23.382;2023-06-26T00:12:31;94217.19;;;22.18;100.00
12775;BME280;6451;42.630;23.382;2023-06-26T00:14:58;94203.22;;;21.82;100.00
12775;BME280;6451;42.630;23.382;2023-06-26T00:17:25;94205.31;;;21.74;100.00
12775;BME280;6451;42.630;23.382;2023-06-26T00:19:52;94191.59;;;21.71;100.00
12775;BME280;6451;42.630;23.382;2023-06-26T00:22:20;94221.06;;;22.01;100.00
12775;BME280;6451;42.630;23.382;2023-06-26T00:24:48;94208.97;;;21.91;100.00
12775;BME280;6451;42.630;23.382;2023-06-26T00:27:17;94184.75;;;21.55;100.00
12775;BME280;6451;42.630;23.382;2023-06-26T00:29:43;94201.47;;;21.91;100.00
12775;BME280;6451;42.630;23.382;2023-06-26T00:32:11;94180.47;;;21.74;100.00
12775;BME280;6451;42.630;23.382;2023-06-26T00:34:38;94200.75;;;21.87;100.00
12775;BME280;6451;42.630;23.382;2023-06-26T00:37:05;94212.22;;;21.86;100.00
12775;BME280;6451;42.630;23.382;2023-06-26T00:39:32;94199.75;;;21.78;100.00
12775;BME280;6451;42.630;23.382;2023-06-26T00:41:59;94202.22;;;21.72;100.00
12775;BME280;6451;42.630;23.382;2023-06-26T00:44:27;94193.16;;;21.72;100.00
12775;BME280;6451;42.630;23.382;2023-06-26T00:46:54;94199.28;;;22.03;100.00
12775;BME280;6451;42.630;23.382;2023-06-26T00:49:22;94190.16;;;21.62;100.00
12775;BME280;6451;42.630;23.382;2023-06-26T00:51:50;94208.97;;;21.68;100.00
12775;BME280;6451;42.630;23.382;2023-06-26T00:54:17;94197.16;;;21.67;100.00
12775;BME280;6451;42.630;23.382;2023-06-26T00:56:45;94195.28;;;21.84;100.00
12775;BME280;6451;42.630;23.382;2023-06-26T00:59:14;94194.75;;;21.69;100.00
12775;BME280;6451;42.630;23.382;2023-06-26T01:01:43;94190.13;;;21.86;100.00
12775;BME280;6451;42.630;23.382;2023-06-26T01:04:10;94175.47;;;21.89;100.00
12775;BME280;6451;42.630;23.382;2023-06-26T01:06:43;94167.06;;;21.73;100.00
12775;BME280;6451;42.630;23.382;2023-06-26T01:09:15;94182.75;;;21.79;100.00
12775;BME280;6451;42.630;23.382;2023-06-26T01:11:43;94190.13;;;21.86;100.00
12775;BME280;6451;42.630;23.382;2023-06-26T01:14:09;94159.47;;;21.57;100.00
12775;BME280;6451;42.630;23.382;2023-06-26T01:16:38;94179.47;;;21.84;100.00
12775;BME280;6451;42.630;23.382;2023-06-26T01:19:10;94200.03;;;21.60;100.00
12775;BME280;6451;42.630;23.382;2023-06-26T01:21:43;94172.78;;;21.62;100.00
12775;BME280;6451;42.630;23.382;2023-06-26T01:24:16;94181.13;;;21.58;100.00
12775;BME280;6451;42.630;23.382;2023-06-26T01:26:49;94179.25;;;21.52;100.00
12775;BME280;6451;42.630;23.382;2023-06-26T01:29:17;94177.41;;;21.45;100.00
12775;BME280;6451;42.630;23.382;2023-06-26T01:31:46;94148.94;;;21.25;100.00
12775;BME280;6451;42.630;23.382;2023-06-26T01:34:15;94164.22;;;21.33;100.00
12775;BME280;6451;42.630;23.382;2023-06-26T01:36:42;94165.88;;;21.74;100.00
12775;BME280;6451;42.630;23.382;2023-06-26T01:39:09;94111.47;;;21.24;100.00
12775;BME280;6451;42.630;23.382;2023-06-26T01:41:36;94157.72;;;21.67;100.00
12775;BME280;6451;42.630;23.382;2023-06-26T01:44:16;94162.41;;;21.46;100.00
12775;BME280;6451;42.630;23.382;2023-06-26T01:46:53;94155.84;;;21.60;100.00
12775;BME280;6451;42.630;23.382;2023-06-26T01:49:30;94145.44;;;21.48;100.00
12775;BME280;6451;42.630;23.382;2023-06-26T01:52:02;94152.75;;;21.34;100.00
12775;BME280;6451;42.630;23.382;2023-06-26T01:54:41;94097.38;;;20.95;100.00
12775;BME280;6451;42.630;23.382;2023-06-26T01:57:09;94163.91;;;21.51;100.00
12775;BME280;6451;42.630;23.382;2023-06-26T01:59:40;94165.16;;;21.46;100.00
12775;BME280;6451;42.630;23.382;2023-06-26T02:02:08;94144.69;;;21.44;100.00
12775;BME280;6451;42.630;23.382;2023-06-26T02:04:35;94162.16;;;21.37;100.00
12775;BME280;6451;42.630;23.382;2023-06-26T02:07:03;94146.66;;;21.20;100.00
12775;BME280;6451;42.630;23.382;2023-06-26T02:09:30;94151.66;;;21.52;100.00
12775;BME280;6451;42.630;23.382;2023-06-26T02:11:57;94135.84;;;21.32;100.00
12775;BME280;6451;42.630;23.382;2023-06-26T02:14:23;94154.09;;;21.46;100.00
12775;BME280;6451;42.630;23.382;2023-06-26T02:16:52;94157.84;;;21.59;100.00
12775;BME280;6451;42.630;23.382;2023-06-26T02:19:19;94141.63;;;21.61;100.00
12775;BME280;6451;42.630;23.382;2023-06-26T02:21:47;94167.91;;;21.46;100.00
12775;BME280;6451;42.630;23.382;2023-06-26T02:24:14;94157.72;;;21.43;100.00
12775;BME280;6451;42.630;23.382;2023-06-26T02:26:41;94156.53;;;21.44;100.00
12775;BME280;6451;42.630;23.382;2023-06-26T02:29:08;94159.50;;;21.53;100.00
12775;BME280;6451;42.630;23.382;2023-06-26T02:31:35;94163.44;;;21.56;100.00
12775;BME280;6451;42.630;23.382;2023-06-26T02:34:03;94163.44;;;21.56;100.00
12775;BME280;6451;42.630;23.382;2023-06-26T02:36:30;94167.53;;;21.48;100.00
12775;BME280;6451;42.630;23.382;2023-06-26T02:38:57;94166.47;;;21.61;100.00
12775;BME280;6451;42.630;23.382;2023-06-26T02:41:24;94166.59;;;21.78;100.00
12775;BME280;6451;42.630;23.382;2023-06-26T02:43:51;94162.69;;;21.75;100.00
12775;BME280;6451;42.630;23.382;2023-06-26T02:46:18;94166.50;;;22.05;100.00
12775;BME280;6451;42.630;23.382;2023-06-26T02:48:44;94148.97;;;21.48;100.00
12775;BME280;6451;42.630;23.382;2023-06-26T02:51:13;94172.19;;;21.51;100.00
12775;BME280;6451;42.630;23.382;2023-06-26T02:53:40;94176.69;;;21.41;100.00
12775;BME280;6451;42.630;23.382;2023-06-26T02:56:06;94166.97;;;21.33;100.00
12775;BME280;6451;42.630;23.382;2023-06-26T02:58:34;94150.53;;;21.49;100.00
12775;BME280;6451;42.630;23.382;2023-06-26T03:01:00;94148.84;;;21.55;100.00
12775;BME280;6451;42.630;23.382;2023-06-26T03:03:27;94152.31;;;21.36;100.00
12775;BME280;6451;42.630;23.382;2023-06-26T03:05:54;94139.22;;;21.17;100.00
12775;BME280;6451;42.630;23.382;2023-06-26T03:08:23;94156.59;;;21.64;100.00
12775;BME280;6451;42.630;23.382;2023-06-26T03:10:51;94165.03;;;21.53;100.00
12775;BME280;6451;42.630;23.382;2023-06-26T03:13:18;94166.06;;;21.40;100.00
12775;BME280;6451;42.630;23.382;2023-06-26T03:15:45;94165.78;;;21.57;100.00
12775;BME280;6451;42.630;23.382;2023-06-26T03:18:12;94150.28;;;21.40;100.00
12775;BME280;6451;42.630;23.382;2023-06-26T03:20:39;94170.22;;;21.51;100.00
12775;BME280;6451;42.630;23.382;2023-06-26T03:23:06;94172.13;;;21.54;100.00
12775;BME280;6451;42.630;23.382;2023-06-26T03:25:34;94143.00;;;21.26;100.00
12775;BME280;6451;42.630;23.382;2023-06-26T03:28:01;94155.44;;;21.61;100.00
12775;BME280;6451;42.630;23.382;2023-06-26T03:30:28;94171.88;;;21.45;100.00
12775;BME280;6451;42.630;23.382;2023-06-26T03:32:55;94161.88;;;21.55;100.00
12775;BME280;6451;42.630;23.382;2023-06-26T03:35:22;94171.03;;;21.72;100.00
12775;BME280;6451;42.630;23.382;2023-06-26T03:37:49;94137.06;;;21.51;100.00
12775;BME280;6451;42.630;23.382;2023-06-26T03:40:16;94171.59;;;21.63;100.00
12775;BME280;6451;42.630;23.382;2023-06-26T03:42:44;94177.50;;;21.38;100.00
12775;BME280;6451;42.630;23.382;2023-06-26T03:45:11;94172.84;;;21.58;100.00
12775;BME280;6451;42.630;23.382;2023-06-26T03:47:38;94175.94;;;21.84;100.00
12775;BME280;6451;42.630;23.382;2023-06-26T03:50:05;94175.38;;;21.49;100.00
12775;BME280;6451;42.630;23.382;2023-06-26T03:52:32;94158.63;;;21.36;100.00
12775;BME280;6451;42.630;23.382;2023-06-26T03:55:00;94156.53;;;21.44;100.00
12775;BME280;6451;42.630;23.382;2023-06-26T03:57:28;94167.03;;;21.53;100.00
12775;BME280;6451;42.630;23.382;2023-06-26T03:59:56;94164.75;;;21.48;100.00
12775;BME280;6451;42.630;23.382;2023-06-26T04:02:23;94167.13;;;21.46;100.00
12775;BME280;6451;42.630;23.382;2023-06-26T04:04:50;94157.41;;;21.37;100.00
12775;BME280;6451;42.630;23.382;2023-06-26T04:07:17;94162.75;;;21.25;100.00
12775;BME280;6451;42.630;23.382;2023-06-26T04:09:44;94160.28;;;21.54;100.00
12775;BME280;6451;42.630;23.382;2023-06-26T04:12:11;94147.88;;;21.42;100.00
12775;BME280;6451;42.630;23.382;2023-06-26T04:14:38;94168.88;;;21.59;100.00
12775;BME280;6451;42.630;23.382;2023-06-26T04:17:06;94162.22;;;22.00;100.00
12775;BME280;6451;42.630;23.382;2023-06-26T04:19:34;94145.34;;;21.75;100.00
12775;BME280;6451;42.630;23.382;2023-06-26T04:22:02;94162.72;;;21.95;100.00
12775;BME280;6451;42.630;23.382;2023-06-26T04:24:29;94153.16;;;21.80;100.00
12775;BME280;6451;42.630;23.382;2023-06-26T04:26:56;94162.41;;;22.13;100.00
12775;BME280;6451;42.630;23.382;2023-06-26T04:29:23;94156.66;;;22.43;100.00
12775;BME280;6451;42.630;23.382;2023-06-26T04:31:51;94160.88;;;22.32;100.00
12775;BME280;6451;42.630;23.382;2023-06-26T04:34:19;94164.16;;;22.23;100.00
12775;BME280;6451;42.630;23.382;2023-06-26T04:36:46;94164.03;;;22.30;100.00
12775;BME280;6451;42.630;23.382;2023-06-26T04:39:13;94173.03;;;22.14;100.00
12775;BME280;6451;42.630;23.382;2023-06-26T04:41:41;94175.91;;;22.07;100.00
12775;BME280;6451;42.630;23.382;2023-06-26T04:44:08;94176.41;;;22.02;100.00
12775;BME280;6451;42.630;23.382;2023-06-26T04:46:37;94180.97;;;22.12;100.00
12775;BME280;6451;42.630;23.382;2023-06-26T04:49:07;94176.19;;;22.16;100.00
12775;BME280;6451;42.630;23.382;2023-06-26T04:51:35;94162.50;;;22.06;100.00
12775;BME280;6451;42.630;23.382;2023-06-26T04:54:06;94170.56;;;22.40;100.00
12775;BME280;6451;42.630;23.382;2023-06-26T04:56:32;94170.56;;;22.40;100.00
12775;BME280;6451;42.630;23.382;2023-06-26T04:59:00;94170.56;;;22.20;100.00
12775;BME280;6451;42.630;23.382;2023-06-26T05:01:27;94131.22;;;21.69;100.00
12775;BME280;6451;42.630;23.382;2023-06-26T05:03:55;94186.97;;;22.07;100.00
12775;BME280;6451;42.630;23.382;2023-06-26T05:06:22;94189.00;;;22.27;100.00
12775;BME280;6451;42.630;23.382;2023-06-26T05:08:50;94137.78;;;21.79;100.00
12775;BME280;6451;42.630;23.382;2023-06-26T05:11:17;94191.06;;;21.99;100.00
12775;BME280;6451;42.630;23.382;2023-06-26T05:13:45;94181.41;;;21.87;100.00
12775;BME280;6451;42.630;23.382;2023-06-26T05:16:12;94193.41;;;22.24;100.00
12775;BME280;6451;42.630;23.382;2023-06-26T05:18:39;94194.97;;;22.25;100.00
12775;BME280;6451;42.630;23.382;2023-06-26T05:21:06;94201.31;;;22.22;100.00
12775;BME280;6451;42.630;23.382;2023-06-26T05:23:34;94191.81;;;22.23;100.00
12775;BME280;6451;42.630;23.382;2023-06-26T05:26:03;94192.09;;;22.29;100.00
12775;BME280;6451;42.630;23.382;2023-06-26T05:28:30;94185.38;;;21.86;100.00
12775;BME280;6451;42.630;23.382;2023-06-26T05:30:58;94207.09;;;22.08;100.00
12775;BME280;6451;42.630;23.382;2023-06-26T05:33:26;94148.56;;;21.93;100.00
12775;BME280;6451;42.630;23.382;2023-06-26T05:35:54;94196.63;;;22.39;100.00
12775;BME280;6451;42.630;23.382;2023-06-26T05:38:21;94199.81;;;22.77;100.00
12775;BME280;6451;42.630;23.382;2023-06-26T05:40:49;94196.97;;;23.00;100.00
12775;BME280;6451;42.630;23.382;2023-06-26T05:43:18;94211.38;;;22.92;100.00
12775;BME280;6451;42.630;23.382;2023-06-26T05:45:46;94199.75;;;23.00;100.00
12775;BME280;6451;42.630;23.382;2023-06-26T05:48:14;94196.47;;;23.22;100.00
12775;BME280;6451;42.630;23.382;2023-06-26T05:50:42;94197.91;;;23.63;100.00
12775;BME280;6451;42.630;23.382;2023-06-26T05:53:09;94190.25;;;23.99;100.00
12775;BME280;6451;42.630;23.382;2023-06-26T05:55:37;94193.91;;;23.80;100.00
12775;BME280;6451;42.630;23.382;2023-06-26T05:58:05;94187.69;;;23.76;100.00
12775;BME280;6451;42.630;23.382;2023-06-26T06:00:34;94203.69;;;23.52;100.00
12775;BME280;6451;42.630;23.382;2023-06-26T06:03:01;94204.41;;;23.72;100.00
12775;BME280;6451;42.630;23.382;2023-06-26T06:05:29;94203.66;;;23.36;100.00
12775;BME280;6451;42.630;23.382;2023-06-26T06:07:56;94198.72;;;23.27;100.00
12775;BME280;6451;42.630;23.382;2023-06-26T06:10:23;94218.03;;;23.30;100.00
12775;BME280;6451;42.630;23.382;2023-06-26T06:12:49;94213.69;;;23.29;100.00
12775;BME280;6451;42.630;23.382;2023-06-26T06:15:17;94202.47;;;23.53;100.00
12775;BME280;6451;42.630;23.382;2023-06-26T06:17:46;94204.69;;;23.09;100.00
12775;BME280;6451;42.630;23.382;2023-06-26T06:20:13;94192.38;;;23.63;100.00
12775;BME280;6451;42.630;23.382;2023-06-26T06:22:40;94177.19;;;23.35;100.00
12775;BME280;6451;42.630;23.382;2023-06-26T06:25:08;94211.19;;;23.35;100.00
12775;BME280;6451;42.630;23.382;2023-06-26T06:27:35;94206.09;;;23.17;100.00
12775;BME280;6451;42.630;23.382;2023-06-26T06:30:02;94192.94;;;23.38;100.00
12775;BME280;6451;42.630;23.382;2023-06-26T06:32:29;94154.59;;;23.36;100.00
12775;BME280;6451;42.630;23.382;2023-06-26T06:34:57;94196.06;;;23.40;100.00
12775;BME280;6451;42.630;23.382;2023-06-26T06:37:24;94180.66;;;23.55;100.00
12775;BME280;6451;42.630;23.382;2023-06-26T06:39:51;94200.47;;;23.37;100.00
12775;BME280;6451;42.630;23.382;2023-06-26T06:42:18;94177.47;;;23.56;100.00
12775;BME280;6451;42.630;23.382;2023-06-26T06:44:45;94192.19;;;23.86;100.00
12775;BME280;6451;42.630;23.382;2023-06-26T06:47:12;94196.44;;;23.74;100.00
12775;BME280;6451;42.630;23.382;2023-06-26T06:49:39;94188.25;;;24.00;100.00
12775;BME280;6451;42.630;23.382;2023-06-26T06:52:07;94154.50;;;24.18;100.00
12775;BME280;6451;42.630;23.382;2023-06-26T06:54:51;94197.22;;;24.20;100.00
12775;BME280;6451;42.630;23.382;2023-06-26T06:57:18;94163.41;;;23.96;100.00
12775;BME280;6451;42.630;23.382;2023-06-26T06:59:45;94163.34;;;24.12;100.00
12775;BME280;6451;42.630;23.382;2023-06-26T07:02:12;94182.50;;;24.23;100.00
12775;BME280;6451;42.630;23.382;2023-06-26T07:04:39;94186.91;;;24.21;100.00
12775;BME280;6451;42.630;23.382;2023-06-26T07:07:07;94184.41;;;24.55;100.00
12775;BME280;6451;42.630;23.382;2023-06-26T07:09:35;94184.13;;;24.79;100.00
12775;BME280;6451;42.630;23.382;2023-06-26T07:12:02;94151.84;;;25.23;100.00
12775;BME280;6451;42.630;23.382;2023-06-26T07:14:30;94185.41;;;25.16;100.00
12775;BME280;6451;42.630;23.382;2023-06-26T07:16:57;94178.41;;;25.24;100.00
12775;BME280;6451;42.630;23.382;2023-06-26T07:19:24;94175.19;;;25.38;100.00
12775;BME280;6451;42.630;23.382;2023-06-26T07:21:51;94175.19;;;25.26;100.00
12775;BME280;6451;42.630;23.382;2023-06-26T07:24:19;94173.16;;;25.51;100.00
12775;BME280;6451;42.630;23.382;2023-06-26T07:26:46;94179.03;;;25.66;100.00
12775;BME280;6451;42.630;23.382;2023-06-26T07:29:12;94179.78;;;25.67;100.00
12775;BME280;6451;42.630;23.382;2023-06-26T07:31:39;94166.38;;;25.52;100.00
12775;BME280;6451;42.630;23.382;2023-06-26T07:34:06;94185.16;;;25.61;100.00
12775;BME280;6451;42.630;23.382;2023-06-26T07:36:33;94165.91;;;25.67;100.00
12775;BME280;6451;42.630;23.382;2023-06-26T07:39:00;94162.13;;;25.61;100.00
12775;BME280;6451;42.630;23.382;2023-06-26T07:41:28;94185.38;;;25.54;100.00
12775;BME280;6451;42.630;23.382;2023-06-26T07:43:56;94177.94;;;25.64;100.00
12775;BME280;6451;42.630;23.382;2023-06-26T07:46:23;94165.72;;;25.61;100.00
12775;BME280;6451;42.630;23.382;2023-06-26T07:48:50;94178.38;;;26.10;100.00
12775;BME280;6451;42.630;23.382;2023-06-26T07:51:17;94177.25;;;25.72;100.00
12775;BME280;6451;42.630;23.382;2023-06-26T07:53:44;94189.38;;;25.53;100.00
12775;BME280;6451;42.630;23.382;2023-06-26T07:56:11;94179.19;;;25.25;100.00
12775;BME280;6451;42.630;23.382;2023-06-26T07:58:39;94168.03;;;25.63;100.00
12775;BME280;6451;42.630;23.382;2023-06-26T08:01:06;94178.81;;;25.61;100.00
12775;BME280;6451;42.630;23.382;2023-06-26T08:03:33;94151.41;;;25.12;100.00
12775;BME280;6451;42.630;23.382;2023-06-26T08:05:59;94180.72;;;25.26;100.00
12775;BME280;6451;42.630;23.382;2023-06-26T08:08:26;94178.50;;;25.46;100.00
12775;BME280;6451;42.630;23.382;2023-06-26T08:10:53;94177.16;;;25.38;100.00
12775;BME280;6451;42.630;23.382;2023-06-26T08:13:21;94172.50;;;25.47;100.00
12775;BME280;6451;42.630;23.382;2023-06-26T08:15:50;94179.16;;;25.63;100.00
12775;BME280;6451;42.630;23.382;2023-06-26T08:18:17;94146.94;;;25.40;100.00
12775;BME280;6451;42.630;23.382;2023-06-26T08:20:44;94163.72;;;26.09;100.00
12775;BME280;6451;42.630;23.382;2023-06-26T08:23:11;94174.16;;;26.05;100.00
12775;BME280;6451;42.630;23.382;2023-06-26T08:25:38;94182.72;;;26.11;100.00
12775;BME280;6451;42.630;23.382;2023-06-26T08:28:05;94175.31;;;25.95;100.00
12775;BME280;6451;42.630;23.382;2023-06-26T08:30:32;94160.63;;;26.73;100.00
12775;BME280;6451;42.630;23.382;2023-06-26T08:33:00;94163.28;;;27.69;100.00
12775;BME280;6451;42.630;23.382;2023-06-26T08:35:27;94169.22;;;27.99;97.84
12775;BME280;6451;42.630;23.382;2023-06-26T08:37:54;94164.13;;;27.08;96.05
12775;BME280;6451;42.630;23.382;2023-06-26T08:40:21;94170.38;;;26.46;100.00
12775;BME280;6451;42.630;23.382;2023-06-26T08:42:48;94179.88;;;26.01;100.00
12775;BME280;6451;42.630;23.382;2023-06-26T08:45:19;94173.47;;;26.14;100.00
12775;BME280;6451;42.630;23.382;2023-06-26T08:47:48;94186.63;;;26.35;100.00
12775;BME280;6451;42.630;23.382;2023-06-26T08:50:20;94158.16;;;26.31;100.00
12775;BME280;6451;42.630;23.382;2023-06-26T08:52:53;94144.22;;;26.44;99.41
12775;BME280;6451;42.630;23.382;2023-06-26T08:55:23;94169.47;;;26.49;100.00
12775;BME280;6451;42.630;23.382;2023-06-26T08:57:54;94177.34;;;26.51;100.00
12775;BME280;6451;42.630;23.382;2023-06-26T09:00:21;94180.50;;;26.05;100.00
12775;BME280;6451;42.630;23.382;2023-06-26T09:02:49;94163.41;;;26.07;100.00
12775;BME280;6451;42.630;23.382;2023-06-26T09:05:16;94162.66;;;25.94;100.00
12775;BME280;6451;42.630;23.382;2023-06-26T09:07:44;94170.63;;;26.39;100.00
12775;BME280;6451;42.630;23.382;2023-06-26T09:10:11;94169.69;;;26.86;100.00
12775;BME280;6451;42.630;23.382;2023-06-26T09:12:38;94172.28;;;27.42;97.66
12775;BME280;6451;42.630;23.382;2023-06-26T09:15:07;94158.69;;;26.60;97.68
12775;BME280;6451;42.630;23.382;2023-06-26T09:17:39;94171.66;;;26.76;99.07
12775;BME280;6451;42.630;23.382;2023-06-26T09:20:07;94156.13;;;26.97;97.77
12775;BME280;6451;42.630;23.382;2023-06-26T09:22:37;94158.59;;;26.95;98.85
12775;BME280;6451;42.630;23.382;2023-06-26T09:25:07;94167.22;;;26.88;98.18
12775;BME280;6451;42.630;23.382;2023-06-26T09:27:35;94163.97;;;27.11;98.25
12775;BME280;6451;42.630;23.382;2023-06-26T09:30:02;94165.84;;;26.27;97.44
12775;BME280;6451;42.630;23.382;2023-06-26T09:32:30;94144.72;;;26.51;99.05
12775;BME280;6451;42.630;23.382;2023-06-26T09:34:56;94157.56;;;27.02;96.20
12775;BME280;6451;42.630;23.382;2023-06-26T09:37:25;94136.88;;;27.12;94.64
12775;BME280;6451;42.630;23.382;2023-06-26T09:39:53;94168.38;;;27.00;95.53
12775;BME280;6451;42.630;23.382;2023-06-26T09:42:23;94127.75;;;26.80;94.23
12775;BME280;6451;42.630;23.382;2023-06-26T09:44:50;94167.75;;;27.27;92.67
12775;BME280;6451;42.630;23.382;2023-06-26T09:47:18;94158.16;;;27.37;92.95
12775;BME280;6451;42.630;23.382;2023-06-26T09:49:46;94164.34;;;27.72;93.01
12775;BME280;6451;42.630;23.382;2023-06-26T09:52:14;94142.41;;;27.92;91.40
12775;BME280;6451;42.630;23.382;2023-06-26T09:54:41;94162.91;;;27.18;95.43
12775;BME280;6451;42.630;23.382;2023-06-26T09:57:11;94134.91;;;26.91;95.38
12775;BME280;6451;42.630;23.382;2023-06-26T09:59:42;94162.66;;;27.03;95.30
12775;BME280;6451;42.630;23.382;2023-06-26T10:02:09;94168.53;;;26.74;96.04
12775;BME280;6451;42.630;23.382;2023-06-26T10:04:37;94163.38;;;26.42;95.73
12775;BME280;6451;42.630;23.382;2023-06-26T10:07:08;94163.22;;;26.23;97.07
12775;BME280;6451;42.630;23.382;2023-06-26T10:09:37;94168.94;;;26.64;96.44
12775;BME280;6451;42.630;23.382;2023-06-26T10:12:08;94142.59;;;25.99;93.36
12775;BME280;6451;42.630;23.382;2023-06-26T10:14:37;94162.09;;;26.21;92.75
12775;BME280;6451;42.630;23.382;2023-06-26T10:17:10;94181.56;;;26.21;94.30
12775;BME280;6451;42.630;23.382;2023-06-26T10:19:43;94158.84;;;26.22;95.17
12775;BME280;6451;42.630;23.382;2023-06-26T10:22:12;94159.06;;;26.28;92.67
12775;BME280;6451;42.630;23.382;2023-06-26T10:24:41;94153.69;;;26.46;93.46
12775;BME280;6451;42.630;23.382;2023-06-26T10:27:19;94165.22;;;26.67;93.44
12775;BME280;6451;42.630;23.382;2023-06-26T10:29:49;94171.00;;;26.50;92.57
12775;BME280;6451;42.630;23.382;2023-06-26T10:32:20;94152.09;;;26.67;91.45
12775;BME280;6451;42.630;23.382;2023-06-26T10:34:47;94157.34;;;26.65;89.95
12775;BME280;6451;42.630;23.382;2023-06-26T10:37:15;94173.94;;;26.47;91.07
12775;BME280;6451;42.630;23.382;2023-06-26T10:39:50;94163.22;;;26.67;91.52
12775;BME280;6451;42.630;23.382;2023-06-26T10:42:17;94168.53;;;26.30;92.38
12775;BME280;6451;42.630;23.382;2023-06-26T10:44:46;94144.59;;;25.98;97.74
12775;BME280;6451;42.630;23.382;2023-06-26T10:47:29;94164.34;;;25.66;100.00
12775;BME280;6451;42.630;23.382;2023-06-26T10:49:56;94164.03;;;25.64;99.78
12775;BME280;6451;42.630;23.382;2023-06-26T10:52:26;94174.28;;;25.54;94.74
12775;BME280;6451;42.630;23.382;2023-06-26T10:54:54;94143.25;;;25.56;94.16
12775;BME280;6451;42.630;23.382;2023-06-26T10:57:23;94166.75;;;26.02;93.49
12775;BME280;6451;42.630;23.382;2023-06-26T11:00:08;94150.31;;;25.82;91.79
12775;BME280;6451;42.630;23.382;2023-06-26T11:02:48;94156.63;;;25.95;91.64
12775;BME280;6451;42.630;23.382;2023-06-26T11:05:24;94159.41;;;25.95;90.69
12775;BME280;6451;42.630;23.382;2023-06-26T11:08:05;94154.84;;;26.01;91.34
12775;BME280;6451;42.630;23.382;2023-06-26T11:10:51;94149.81;;;26.31;90.97
12775;BME280;6451;42.630;23.382;2023-06-26T11:13:20;94140.75;;;25.83;93.27
12775;BME280;6451;42.630;23.382;2023-06-26T11:15:47;94156.06;;;26.22;93.01
12775;BME280;6451;42.630;23.382;2023-06-26T11:18:16;94150.94;;;26.55;92.74
12775;BME280;6451;42.630;23.382;2023-06-26T11:20:44;94138.88;;;26.15;93.58
12775;BME280;6451;42.630;23.382;2023-06-26T11:23:12;94142.53;;;26.46;92.81
12775;BME280;6451;42.630;23.382;2023-06-26T11:25:39;94141.22;;;26.38;91.84
12775;BME280;6451;42.630;23.382;2023-06-26T11:28:09;94143.91;;;26.95;89.71
12775;BME280;6451;42.630;23.382;2023-06-26T11:30:36;94135.91;;;26.75;88.58
12775;BME280;6451;42.630;23.382;2023-06-26T11:33:06;94082.66;;;26.64;88.42
12775;BME280;6451;42.630;23.382;2023-06-26T11:35:34;94132.59;;;26.98;85.82
12775;BME280;6451;42.630;23.382;2023-06-26T11:38:03;94152.66;;;27.46;84.72
12775;BME280;6451;42.630;23.382;2023-06-26T11:40:31;94151.47;;;26.94;85.35
12775;BME280;6451;42.630;23.382;2023-06-26T11:42:59;94137.13;;;26.74;85.32
12775;BME280;6451;42.630;23.382;2023-06-26T11:45:28;94118.91;;;27.04;85.90
12775;BME280;6451;42.630;23.382;2023-06-26T11:47:55;94129.91;;;27.07;85.17
12775;BME280;6451;42.630;23.382;2023-06-26T11:50:23;94119.00;;;27.31;83.99
12775;BME280;6451;42.630;23.382;2023-06-26T11:52:57;94146.38;;;26.93;84.53
12775;BME280;6451;42.630;23.382;2023-06-26T11:55:25;94136.63;;;26.97;82.46
12775;BME280;6451;42.630;23.382;2023-06-26T11:57:53;94140.44;;;27.12;84.13
12775;BME280;6451;42.630;23.382;2023-06-26T12:00:21;94130.31;;;27.95;82.59
12775;BME280;6451;42.630;23.382;2023-06-26T12:02:48;94110.44;;;27.75;80.56
12775;BME280;6451;42.630;23.382;2023-06-26T12:05:16;94135.88;;;28.05;77.67
12775;BME280;6451;42.630;23.382;2023-06-26T12:07:44;94131.75;;;27.60;79.23
12775;BME280;6451;42.630;23.382;2023-06-26T12:10:15;94130.38;;;27.64;79.65
12775;BME280;6451;42.630;23.382;2023-06-26T12:12:44;94133.28;;;27.52;79.71
12775;BME280;6451;42.630;23.382;2023-06-26T12:15:16;94130.22;;;27.59;80.14
12775;BME280;6451;42.630;23.382;2023-06-26T12:17:43;94109.91;;;27.00;81.23
12775;BME280;6451;42.630;23.382;2023-06-26T12:20:20;94099.22;;;27.48;81.04
12775;BME280;6451;42.630;23.382;2023-06-26T12:22:47;94116.53;;;27.92;80.66
12775;BME280;6451;42.630;23.382;2023-06-26T12:25:21;94124.50;;;27.53;78.95
12775;BME280;6451;42.630;23.382;2023-06-26T12:27:49;94115.13;;;27.87;78.52
12775;BME280;6451;42.630;23.382;2023-06-26T12:30:16;94126.72;;;27.77;76.55
12775;BME280;6451;42.630;23.382;2023-06-26T12:32:46;94122.50;;;27.13;78.86
12775;BME280;6451;42.630;23.382;2023-06-26T12:35:13;94133.78;;;27.10;81.21
12775;BME280;6451;42.630;23.382;2023-06-26T12:37:42;94126.19;;;27.60;80.33
12775;BME280;6451;42.630;23.382;2023-06-26T12:40:18;94127.00;;;27.20;79.76
12775;BME280;6451;42.630;23.382;2023-06-26T12:42:47;94119.00;;;28.26;78.29
12775;BME280;6451;42.630;23.382;2023-06-26T12:45:15;94115.91;;;28.34;76.87
12775;BME280;6451;42.630;23.382;2023-06-26T12:47:42;94123.19;;;28.13;75.56
12775;BME280;6451;42.630;23.382;2023-06-26T12:50:09;94114.19;;;28.36;75.10
12775;BME280;6451;42.630;23.382;2023-06-26T12:52:36;94108.59;;;28.27;76.05
12775;BME280;6451;42.630;23.382;2023-06-26T12:55:05;94080.72;;;28.00;72.68
12775;BME280;6451;42.630;23.382;2023-06-26T12:57:33;94118.53;;;28.01;75.88